createdAt,value
2019-01-21T00:01:44.495Z,-5.40
2019-01-21T00:04:15.995Z,-5.50
2019-01-21T00:06:46.154Z,-5.50
2019-01-21T00:09:16.359Z,-5.50
2019-01-21T00:11:46.507Z,-5.50
2019-01-21T00:14:16.675Z,-5.60
2019-01-21T00:16:46.878Z,-5.60
2019-01-21T00:19:17.079Z,-5.70
2019-01-21T00:21:47.264Z,-5.80
2019-01-21T00:24:17.451Z,-5.80
2019-01-21T00:26:48.709Z,-5.80
2019-01-21T00:29:18.908Z,-5.90
2019-01-21T00:31:49.084Z,-5.70
2019-01-21T00:34:19.260Z,-5.60
2019-01-21T00:36:49.466Z,-5.40
2019-01-21T00:39:19.631Z,-5.40
2019-01-21T00:41:49.809Z,-5.50
2019-01-21T00:44:19.999Z,-5.60
2019-01-21T00:46:50.179Z,-5.70
2019-01-21T00:49:20.334Z,-5.80
2019-01-21T00:51:50.530Z,-5.90
2019-01-21T00:54:20.700Z,-5.70
2019-01-21T00:56:50.876Z,-5.90
2019-01-21T00:59:21.114Z,-6.00
2019-01-21T01:01:51.284Z,-6.10
2019-01-21T01:04:21.435Z,-6.00
2019-01-21T01:06:51.615Z,-6.00
2019-01-21T01:09:23.270Z,-5.80
2019-01-21T01:11:53.548Z,-5.70
2019-01-21T01:14:23.699Z,-5.60
2019-01-21T01:16:53.879Z,-5.70
2019-01-21T01:19:24.060Z,-5.80
2019-01-21T01:21:54.244Z,-5.90
2019-01-21T01:24:24.434Z,-5.90
2019-01-21T01:26:54.634Z,-5.80
2019-01-21T01:29:24.843Z,-5.90
2019-01-21T01:31:55.023Z,-5.90
2019-01-21T01:34:25.210Z,-5.80
2019-01-21T01:36:55.363Z,-5.70
2019-01-21T01:39:25.546Z,-5.80
2019-01-21T01:41:55.743Z,-5.90
2019-01-21T01:44:25.878Z,-5.80
2019-01-21T01:46:56.071Z,-5.90
2019-01-21T01:49:26.240Z,-5.90
2019-01-21T01:51:56.433Z,-5.90
2019-01-21T01:54:26.795Z,-5.90
2019-01-21T01:56:57.247Z,-5.90
2019-01-21T01:59:27.419Z,-5.80
2019-01-21T02:01:57.588Z,-5.80
2019-01-21T02:04:27.774Z,-5.90
2019-01-21T02:06:57.945Z,-5.90
2019-01-21T02:09:28.135Z,-5.90
2019-01-21T02:11:58.300Z,-5.80
2019-01-21T02:14:28.456Z,-5.90
2019-01-21T02:17:01.615Z,-6.10
2019-01-21T02:19:32.758Z,-6.10
2019-01-21T02:22:03.496Z,-6.10
2019-01-21T02:24:39.286Z,-6.10
2019-01-21T02:27:19.576Z,-6.20
2019-01-21T02:30:32.913Z,-6.10
2019-01-21T02:34:05.591Z,-6.00
2019-01-21T02:37:02.030Z,-5.80
2019-01-21T02:39:51.975Z,-5.80
2019-01-21T02:42:56.291Z,-5.80
2019-01-21T02:46:23.599Z,-5.80
2019-01-21T02:49:18.701Z,-5.80
2019-01-21T02:52:44.622Z,-5.90
2019-01-21T02:55:47.108Z,-6.00
2019-01-21T02:58:43.253Z,-6.00
2019-01-21T03:02:02.203Z,-5.90
2019-01-21T03:05:21.676Z,-6.00
2019-01-21T03:08:28.956Z,-6.20
2019-01-21T03:11:19.729Z,-6.30
2019-01-21T03:14:28.836Z,-6.30
2019-01-21T03:17:42.667Z,-6.20
2019-01-21T03:20:29.315Z,-6.20
2019-01-21T03:23:35.912Z,-6.10
2019-01-21T03:26:53.149Z,-6.20
2019-01-21T03:30:06.504Z,-6.30
2019-01-21T03:33:08.017Z,-6.10
2019-01-21T03:36:43.560Z,-6.20
2019-01-21T03:40:01.629Z,-6.20
2019-01-21T03:42:43.528Z,-6.00
2019-01-21T03:45:39.630Z,-6.10
2019-01-21T03:48:21.572Z,-6.20
2019-01-21T03:51:34.704Z,-6.10
2019-01-21T03:54:18.094Z,-6.10
2019-01-21T03:57:28.769Z,-6.10
2019-01-21T04:00:20.499Z,-6.20
2019-01-21T04:03:07.112Z,-6.30
2019-01-21T04:06:15.169Z,-6.40
2019-01-21T04:09:29.951Z,-6.40
2019-01-21T04:12:30.884Z,-6.50
2019-01-21T04:15:47.067Z,-6.50
2019-01-21T04:18:55.427Z,-6.40
2019-01-21T04:22:02.487Z,-6.30
2019-01-21T04:25:01.473Z,-6.30
2019-01-21T04:28:27.861Z,-6.40
2019-01-21T04:31:26.096Z,-6.40
2019-01-21T04:34:45.068Z,-6.30
2019-01-21T04:37:39.580Z,-6.30
2019-01-21T04:40:53.480Z,-6.10
2019-01-21T04:43:49.037Z,-6.20
2019-01-21T04:46:52.839Z,-6.30
2019-01-21T04:49:52.885Z,-6.50
2019-01-21T04:53:03.711Z,-6.60
2019-01-21T04:55:57.904Z,-6.70
2019-01-21T04:59:17.062Z,-6.80
2019-01-21T05:02:26.943Z,-6.80
2019-01-21T05:05:53.381Z,-6.80
2019-01-21T05:08:55.208Z,-6.70
2019-01-21T05:12:06.191Z,-6.70
2019-01-21T05:15:12.536Z,-6.60
2019-01-21T05:18:21.187Z,-6.50
2019-01-21T05:21:31.432Z,-6.60
2019-01-21T05:24:57.648Z,-6.60
2019-01-21T05:28:08.850Z,-6.50
2019-01-21T05:31:11.900Z,-6.70
2019-01-21T05:34:13.821Z,-6.60
2019-01-21T05:37:30.852Z,-6.60
2019-01-21T05:40:27.644Z,-6.60
2019-01-21T05:43:56.969Z,-6.50
2019-01-21T05:47:16.004Z,-6.50
2019-01-21T05:50:39.576Z,-6.60
2019-01-21T05:53:49.806Z,-6.70
2019-01-21T05:56:54.409Z,-6.70
2019-01-21T06:00:05.051Z,-6.70
2019-01-21T06:03:06.339Z,-6.60
2019-01-21T06:06:16.572Z,-6.60
2019-01-21T06:09:24.004Z,-6.60
2019-01-21T06:12:20.056Z,-6.60
2019-01-21T06:15:26.935Z,-6.70
2019-01-21T06:18:32.984Z,-6.70
2019-01-21T06:21:46.094Z,-6.80
2019-01-21T06:24:42.201Z,-6.70
2019-01-21T06:27:59.855Z,-6.60
2019-01-21T06:31:12.376Z,-6.50
2019-01-21T06:34:15.881Z,-6.50
2019-01-21T06:37:26.228Z,-6.50
2019-01-21T06:40:08.568Z,-6.50
2019-01-21T06:43:18.382Z,-6.50
2019-01-21T06:46:21.673Z,-6.50
2019-01-21T06:49:36.307Z,-6.70
2019-01-21T06:52:42.500Z,-6.70
2019-01-21T06:55:46.774Z,-6.70
2019-01-21T06:58:50.727Z,-6.70
2019-01-21T07:01:53.116Z,-6.80
2019-01-21T07:04:51.274Z,-6.80
2019-01-21T07:07:43.174Z,-6.70
2019-01-21T07:10:33.933Z,-6.70
2019-01-21T07:13:32.074Z,-6.60
2019-01-21T07:16:37.640Z,-6.40
2019-01-21T07:19:47.771Z,-6.40
2019-01-21T07:22:48.339Z,-6.40
2019-01-21T07:26:11.964Z,-6.30
2019-01-21T07:29:33.564Z,-6.30
2019-01-21T07:32:49.590Z,-6.20
2019-01-21T07:35:43.418Z,-6.30
2019-01-21T07:38:51.391Z,-6.40
2019-01-21T07:41:59.208Z,-6.40
2019-01-21T07:44:56.724Z,-6.20
2019-01-21T07:47:59.697Z,-5.80
2019-01-21T07:51:09.950Z,-5.30
2019-01-21T07:54:24.370Z,-4.80
2019-01-21T07:57:38.895Z,-4.50
2019-01-21T08:00:45.916Z,-4.50
2019-01-21T08:03:58.929Z,-4.20
2019-01-21T08:06:58.585Z,-3.90
2019-01-21T08:10:11.423Z,-3.80
2019-01-21T08:13:09.680Z,-3.90
2019-01-21T08:16:22.651Z,-3.80
2019-01-21T08:19:31.507Z,-3.80
2019-01-21T08:22:37.494Z,-3.60
2019-01-21T08:25:50.552Z,-3.20
2019-01-21T08:29:23.245Z,-2.80
2019-01-21T08:32:49.575Z,-2.30
2019-01-21T08:35:42.584Z,-2.30
2019-01-21T08:38:52.523Z,-2.10
2019-01-21T08:42:03.587Z,-1.20
2019-01-21T08:44:51.215Z,-0.70
2019-01-21T08:47:27.902Z,-0.30
2019-01-21T08:50:22.812Z,-0.50
2019-01-21T08:53:33.143Z,-0.70
2019-01-21T08:56:44.061Z,-1.00
2019-01-21T08:59:36.655Z,-1.30
2019-01-21T09:02:56.766Z,-2.20
2019-01-21T09:05:56.202Z,-2.40
2019-01-21T09:09:14.673Z,-1.90
2019-01-21T09:12:24.019Z,-1.40
2019-01-21T09:15:35.622Z,-1.50
2019-01-21T09:18:45.815Z,-1.70
2019-01-21T09:21:38.923Z,-1.70
2019-01-21T09:24:36.800Z,-1.40
2019-01-21T09:27:39.324Z,-1.20
2019-01-21T09:30:55.005Z,-0.80
2019-01-21T09:33:52.978Z,-0.50
2019-01-21T09:36:54.832Z,0.00
2019-01-21T09:39:49.903Z,0.30
2019-01-21T09:42:46.165Z,0.70
2019-01-21T09:45:53.250Z,0.80
2019-01-21T09:48:21.803Z,0.60
2019-01-21T09:50:52.434Z,0.70
2019-01-21T09:53:22.867Z,1.10
2019-01-21T09:55:54.995Z,1.40
2019-01-21T09:58:27.220Z,1.70
2019-01-21T10:00:59.080Z,2.30
2019-01-21T10:03:30.183Z,3.10
2019-01-21T10:06:07.911Z,3.30
2019-01-21T10:09:31.751Z,3.20
2019-01-21T10:12:38.948Z,3.60
2019-01-21T10:15:33.473Z,3.50
2019-01-21T10:18:30.603Z,3.90
2019-01-21T10:21:36.733Z,4.00
2019-01-21T10:24:37.300Z,4.20
2019-01-21T10:27:56.216Z,4.80
2019-01-21T10:31:12.165Z,4.80
2019-01-21T10:34:39.735Z,5.80
2019-01-21T10:37:57.482Z,6.10
2019-01-21T10:40:55.419Z,5.80
2019-01-21T10:44:00.617Z,5.90
2019-01-21T10:47:14.762Z,5.60
2019-01-21T10:50:28.484Z,5.70
2019-01-21T10:53:45.776Z,5.60
2019-01-21T10:56:51.493Z,5.30
2019-01-21T10:59:58.680Z,5.10
2019-01-21T11:02:53.247Z,4.60
2019-01-21T11:06:08.027Z,4.70
2019-01-21T11:09:05.745Z,4.70
2019-01-21T11:12:29.275Z,4.90
2019-01-21T11:15:40.144Z,4.70
2019-01-21T11:18:46.394Z,4.90
2019-01-21T11:21:46.762Z,4.80
2019-01-21T11:24:49.799Z,4.80
2019-01-21T11:27:56.736Z,5.30
2019-01-21T11:31:06.675Z,5.40
2019-01-21T11:34:27.071Z,5.40
2019-01-21T11:37:34.440Z,5.30
2019-01-21T11:40:45.770Z,5.30
2019-01-21T11:44:05.884Z,5.00
2019-01-21T11:47:26.174Z,5.40
2019-01-21T11:50:25.380Z,5.70
2019-01-21T11:53:13.039Z,6.50
2019-01-21T11:56:21.602Z,6.70
2019-01-21T11:59:28.492Z,6.80
2019-01-21T12:02:29.606Z,6.20
2019-01-21T12:05:42.801Z,6.50
2019-01-21T12:08:52.380Z,7.20
2019-01-21T12:11:51.728Z,7.00
2019-01-21T12:14:57.980Z,6.10
2019-01-21T12:17:44.064Z,6.60
2019-01-21T12:20:42.555Z,6.80
2019-01-21T12:23:32.684Z,6.40
2019-01-21T12:26:20.502Z,7.00
2019-01-21T12:29:18.803Z,7.20
2019-01-21T12:32:39.249Z,7.30
2019-01-21T12:35:43.896Z,7.20
2019-01-21T12:39:04.467Z,6.50
2019-01-21T12:42:33.115Z,6.20
2019-01-21T12:45:38.646Z,6.70
2019-01-21T12:48:33.559Z,6.10
2019-01-21T12:51:25.760Z,6.10
2019-01-21T12:54:45.868Z,6.30
2019-01-21T12:57:54.239Z,6.80
2019-01-21T13:01:10.241Z,6.10
2019-01-21T13:04:28.575Z,5.90
2019-01-21T13:07:11.582Z,5.90
2019-01-21T13:10:05.435Z,5.70
2019-01-21T13:13:41.175Z,5.90
2019-01-21T13:16:27.354Z,5.60
2019-01-21T13:19:53.716Z,5.80
2019-01-21T13:22:55.372Z,6.00
2019-01-21T13:26:16.383Z,5.70
2019-01-21T13:29:29.124Z,5.50
2019-01-21T13:32:12.197Z,5.50
2019-01-21T13:35:13.279Z,5.50
2019-01-21T13:38:26.370Z,5.10
2019-01-21T13:41:40.128Z,4.80
2019-01-21T13:45:03.171Z,4.40
2019-01-21T13:47:56.671Z,4.30
2019-01-21T13:50:54.631Z,4.30
2019-01-21T13:54:03.336Z,4.60
2019-01-21T13:56:58.716Z,4.50
2019-01-21T13:59:53.878Z,4.20
2019-01-21T14:02:52.268Z,4.30
2019-01-21T14:05:50.616Z,4.20
2019-01-21T14:09:06.602Z,3.90
2019-01-21T14:12:19.855Z,3.80
2019-01-21T14:15:17.239Z,3.40
2019-01-21T14:18:49.436Z,3.30
2019-01-21T14:22:09.882Z,3.10
2019-01-21T14:25:13.092Z,3.20
2019-01-21T14:28:29.366Z,2.90
2019-01-21T14:31:43.369Z,2.80
2019-01-21T14:35:12.899Z,2.40
2019-01-21T14:38:18.866Z,2.10
2019-01-21T14:41:28.322Z,2.00
2019-01-21T14:44:39.475Z,1.80
2019-01-21T14:47:37.507Z,1.80
2019-01-21T14:50:17.156Z,1.80
2019-01-21T14:53:16.760Z,1.70
2019-01-21T14:56:04.187Z,1.80
2019-01-21T14:59:08.803Z,1.70
2019-01-21T15:02:14.464Z,1.60
2019-01-21T15:05:19.349Z,1.60
2019-01-21T15:08:32.937Z,1.60
2019-01-21T15:11:39.145Z,1.50
2019-01-21T15:14:52.369Z,1.40
2019-01-21T15:18:01.162Z,1.30
2019-01-21T15:21:15.513Z,1.20
2019-01-21T15:24:18.040Z,1.10
2019-01-21T15:27:08.198Z,1.00
2019-01-21T15:30:17.612Z,0.80
2019-01-21T15:33:28.589Z,0.70
2019-01-21T15:36:38.679Z,0.60
2019-01-21T15:39:40.163Z,0.50
2019-01-21T15:43:00.576Z,0.30
2019-01-21T15:45:53.355Z,0.20
2019-01-21T15:49:10.872Z,0.10
2019-01-21T15:52:05.180Z,0.10
2019-01-21T15:55:15.926Z,0.10
2019-01-21T15:58:09.008Z,0.00
2019-01-21T16:01:04.487Z,-0.20
2019-01-21T16:03:58.577Z,-0.30
2019-01-21T16:06:54.584Z,-0.30
2019-01-21T16:10:02.016Z,-0.40
2019-01-21T16:13:03.773Z,-0.50
2019-01-21T16:16:14.802Z,-0.60
2019-01-21T16:18:52.739Z,-0.60
2019-01-21T16:22:01.608Z,-0.80
2019-01-21T16:25:18.008Z,-1.00
2019-01-21T16:28:53.684Z,-1.10
2019-01-21T16:31:37.976Z,-1.20
2019-01-21T16:34:33.028Z,-1.10
2019-01-21T16:37:44.211Z,-1.10
2019-01-21T16:41:04.052Z,-1.10
2019-01-21T16:43:34.247Z,-1.10
2019-01-21T16:46:04.428Z,-1.20
2019-01-21T16:48:36.378Z,-1.20
2019-01-21T16:51:06.579Z,-1.20
2019-01-21T16:53:36.739Z,-1.30
2019-01-21T16:56:07.034Z,-1.30
2019-01-21T16:58:37.248Z,-1.40
2019-01-21T17:01:07.575Z,-1.40
2019-01-21T17:03:37.870Z,-1.30
2019-01-21T17:06:09.812Z,-1.30
2019-01-21T17:08:39.994Z,-1.30
2019-01-21T17:11:10.347Z,-1.20
2019-01-21T17:13:40.716Z,-1.20
2019-01-21T17:16:10.915Z,-1.20
2019-01-21T17:18:41.223Z,-1.30
2019-01-21T17:21:11.448Z,-1.40
2019-01-21T17:23:42.036Z,-1.60
2019-01-21T17:26:12.334Z,-1.60
2019-01-21T17:28:42.548Z,-1.60
2019-01-21T17:31:12.737Z,-1.60
2019-01-21T17:33:42.928Z,-1.60
2019-01-21T17:36:13.108Z,-1.70
2019-01-21T17:38:43.307Z,-1.70
2019-01-21T17:41:13.497Z,-1.80
2019-01-21T17:43:43.727Z,-1.90
2019-01-21T17:46:13.931Z,-1.90
2019-01-21T17:48:44.136Z,-1.90
2019-01-21T17:51:14.428Z,-1.90
2019-01-21T17:53:51.015Z,-1.90
2019-01-21T17:56:16.584Z,-1.80
2019-01-21T17:58:46.791Z,-1.70
2019-01-21T18:01:16.963Z,-1.60
2019-01-21T18:03:47.247Z,-1.60
2019-01-21T18:06:17.537Z,-1.70
2019-01-21T18:08:47.825Z,-1.80
2019-01-21T18:11:18.248Z,-1.80
2019-01-21T18:13:48.536Z,-1.70
2019-01-21T18:16:18.744Z,-1.80
2019-01-21T18:18:49.075Z,-1.80
2019-01-21T18:21:19.453Z,-1.80
2019-01-21T18:23:49.667Z,-1.70
2019-01-21T18:26:19.926Z,-1.70
2019-01-21T18:28:50.321Z,-1.70
2019-01-21T18:31:20.546Z,-1.80
2019-01-21T18:33:50.856Z,-1.80
2019-01-21T18:36:21.049Z,-2.00
2019-01-21T18:38:51.349Z,-2.00
2019-01-21T18:41:21.597Z,-2.10
2019-01-21T18:43:52.223Z,-2.10
2019-01-21T18:46:22.537Z,-2.20
2019-01-21T18:48:53.096Z,-2.30
2019-01-21T18:51:23.643Z,-2.30
2019-01-21T18:53:54.040Z,-2.20
2019-01-21T18:56:24.239Z,-2.20
2019-01-21T18:58:54.524Z,-2.30
2019-01-21T19:01:24.746Z,-2.30
2019-01-21T19:03:54.988Z,-2.40
2019-01-21T19:06:25.417Z,-2.40
2019-01-21T19:08:55.877Z,-2.30
2019-01-21T19:11:26.259Z,-2.40
2019-01-21T19:13:56.627Z,-2.30
2019-01-21T19:16:26.851Z,-2.30
2019-01-21T19:18:57.080Z,-2.30
2019-01-21T19:21:27.272Z,-2.30
2019-01-21T19:23:57.504Z,-2.30
2019-01-21T19:26:27.727Z,-2.30
2019-01-21T19:28:57.952Z,-2.40
2019-01-21T19:31:28.203Z,-2.50
2019-01-21T19:33:58.453Z,-2.50
2019-01-21T19:36:28.802Z,-2.60
2019-01-21T19:38:59.090Z,-2.70
2019-01-21T19:41:29.298Z,-2.80
2019-01-21T19:43:59.492Z,-2.80
2019-01-21T19:46:29.683Z,-2.90
2019-01-21T19:49:00.005Z,-3.00
2019-01-21T19:51:30.198Z,-3.10
2019-01-21T19:54:00.420Z,-3.20
2019-01-21T19:56:30.611Z,-3.30
2019-01-21T19:59:00.843Z,-3.30
2019-01-21T20:01:32.501Z,-3.20
2019-01-21T20:04:04.079Z,-3.30
2019-01-21T20:06:34.310Z,-3.40
2019-01-21T20:09:08.357Z,-3.40
2019-01-21T20:11:38.586Z,-3.40
2019-01-21T20:14:08.768Z,-3.30
2019-01-21T20:16:39.024Z,-3.20
2019-01-21T20:19:09.220Z,-3.10
2019-01-21T20:21:39.509Z,-3.10
2019-01-21T20:24:09.766Z,-3.20
2019-01-21T20:26:39.975Z,-3.30
2019-01-21T20:29:10.211Z,-3.40
2019-01-21T20:31:40.488Z,-3.50
2019-01-21T20:34:10.723Z,-3.60
2019-01-21T20:36:40.934Z,-3.70
2019-01-21T20:39:11.223Z,-3.70
2019-01-21T20:41:41.441Z,-3.60
2019-01-21T20:44:11.711Z,-3.50
2019-01-21T20:46:41.883Z,-3.40
2019-01-21T20:49:13.914Z,-3.40
2019-01-21T20:51:44.208Z,-3.40
2019-01-21T20:54:15.863Z,-3.40
2019-01-21T20:56:46.070Z,-3.50
2019-01-21T20:59:16.263Z,-3.50
2019-01-21T21:01:46.436Z,-3.50
2019-01-21T21:04:16.664Z,-3.50
2019-01-21T21:06:46.783Z,-3.50
2019-01-21T21:09:16.960Z,-3.50
2019-01-21T21:11:47.054Z,-3.50
2019-01-21T21:14:17.132Z,-3.40
2019-01-21T21:16:47.352Z,-3.30
2019-01-21T21:19:17.373Z,-3.30
2019-01-21T21:21:47.484Z,-3.20
2019-01-21T21:24:17.625Z,-3.30
2019-01-21T21:26:49.520Z,-3.30
2019-01-21T21:29:19.619Z,-3.20
2019-01-21T21:31:49.750Z,-3.40
2019-01-21T21:34:19.827Z,-3.50
2019-01-21T21:36:49.869Z,-3.50
2019-01-21T21:39:20.022Z,-3.50
2019-01-21T21:41:50.169Z,-3.50
2019-01-21T21:44:21.266Z,-3.50
2019-01-21T21:46:51.507Z,-3.60
2019-01-21T21:49:21.560Z,-3.70
2019-01-21T21:51:51.606Z,-3.80
2019-01-21T21:54:21.661Z,-3.70
2019-01-21T21:56:51.714Z,-3.60
2019-01-21T21:59:21.806Z,-3.60
2019-01-21T22:01:51.906Z,-3.50
2019-01-21T22:04:21.999Z,-3.50
2019-01-21T22:06:52.341Z,-3.50
2019-01-21T22:09:22.498Z,-3.60
2019-01-21T22:11:52.684Z,-3.60
2019-01-21T22:14:22.741Z,-3.60
2019-01-21T22:16:52.856Z,-3.60
2019-01-21T22:19:22.985Z,-3.40
2019-01-21T22:21:53.575Z,-3.40
2019-01-21T22:24:23.797Z,-3.50
2019-01-21T22:26:53.980Z,-3.70
2019-01-21T22:29:24.161Z,-3.70
2019-01-21T22:31:54.427Z,-3.80
2019-01-21T22:34:25.008Z,-3.80
2019-01-21T22:36:55.159Z,-3.90
2019-01-21T22:39:25.351Z,-3.90
2019-01-21T22:41:55.522Z,-3.90
2019-01-21T22:44:25.678Z,-4.00
2019-01-21T22:46:55.875Z,-4.00
2019-01-21T22:49:26.042Z,-4.00
2019-01-21T22:51:56.204Z,-3.90
2019-01-21T22:54:26.366Z,-3.90
2019-01-21T22:56:56.634Z,-3.90
2019-01-21T22:59:26.825Z,-4.00
2019-01-21T23:01:57.089Z,-4.00
2019-01-21T23:04:27.311Z,-4.00
2019-01-21T23:06:57.551Z,-4.00
2019-01-21T23:09:28.020Z,-3.90
2019-01-21T23:11:58.169Z,-4.00
2019-01-21T23:14:28.370Z,-4.00
2019-01-21T23:16:58.652Z,-3.90
2019-01-21T23:19:28.856Z,-3.80
2019-01-21T23:21:59.364Z,-3.80
2019-01-21T23:24:29.516Z,-3.80
2019-01-21T23:26:59.691Z,-3.80
2019-01-21T23:29:29.859Z,-4.00
2019-01-21T23:32:00.053Z,-4.00
2019-01-21T23:34:30.475Z,-4.10
2019-01-21T23:37:00.669Z,-4.20
2019-01-21T23:39:30.832Z,-4.10
2019-01-21T23:42:01.080Z,-4.00
2019-01-21T23:44:31.336Z,-4.00
2019-01-21T23:47:01.996Z,-3.90
2019-01-21T23:49:32.266Z,-3.90
2019-01-21T23:52:02.434Z,-4.00
2019-01-21T23:54:32.728Z,-4.00
2019-01-21T23:57:02.977Z,-3.90
2019-01-21T23:59:33.425Z,-4.00
